Bei Facebook empfehlenBei Twitter postenGoogle plusPinterest

Das Wetter im Erzgebirge am 16.01.2015

Wetter und Klima am 16.01.2015 Holzhau im Erzgebirge (630m ü.NN)
Letzte gemessene Temperatur und Uhrzeit der Messung23:45:00 Uhr1.20 °C
Temperatur (Maximum / Höchstwert) und Uhrzeit der Messung04:00:00 Uhr4.90 °C
Temperatur (Minimum / Tiefstwert) und Uhrzeit der Messung22:00:001.00 °C
Errechneter Absolutwert der Temperaturschwankungen zwischen Tmin und Tmax des Tages3.90 K
Errechnete Tagesmitteltemperatur2.99063 °C
Gesamt - Niederschlag des Tages (in flüssiger Form)0.00 Liter / m²
Luftdruck (Maximum / Höchstwert) und Zeitpunkt der Messung11:00:00 Uhr1007.70 hPa
Luftdruck (Minimum / Tiefstwert) und Zeitpunkt der Messung22:30:00 Uhr1003.90 hPa
Errechneter Absolutwert der Luftdruckschwankungen des Tages3.80 hPa
Höchste gemessene Windgeschwindigkeit und Uhrzeit der Messung14:45:00 Uhr13.32 km/h
Errechnete Windhäufigkeit in Relation zu den Messwerten des Tages11.45833 %
Niedrigste Windkühle (Windchill) und Zeitpunkt der Messung20:00:00 Uhr-1.30 °C
Taupunkt (Maximum / Höchstwert) und Uhrzeit der Messung09:15:00 Uhr1.10 °C
Taupunkt (Minimum / Tiefstwert) und Uhrzeit der Messung01:45:00-1.20 °C
Anzahl der automatisch eingelesenen Messwerte 96

Detaillierte Wetter- und Klima- Messwerte für den 16.01.2015 in Holzhau im Erzgebirge (630m ü.NN)
ZeitTemperaturLuftdruckRel. LuftfeuchteWindWindrichtungWindchillTaupunktNiederschlag l/m²
23:45:001.20 °C1004.20 hPa91.00 %-0.10 °C 
23:30:001.30 °C1004.10 hPa91.00 %0.00 °C 
23:15:001.30 °C1004.20 hPa91.00 %0.00 °C 
23:00:001.30 °C1004.10 hPa91.00 %0.00 °C 
22:45:001.30 °C1004.40 hPa91.00 %0.00 °C 
22:30:001.20 °C1003.90 hPa91.00 %-0.10 °C 
22:15:001.10 °C1004.00 hPa91.00 %-0.20 °C 
22:00:001.00 °C1004.20 hPa91.00 %-0.30 °C 
21:45:001.20 °C1004.00 hPa90.00 %-0.30 °C 
21:30:001.30 °C1004.20 hPa91.00 %0.00 °C 
21:15:001.30 °C1004.40 hPa91.00 %0.00 °C 
21:00:001.30 °C1004.30 hPa91.00 %0.00 °C 
20:45:001.20 °C1004.30 hPa90.00 %-0.30 °C 
20:30:001.20 °C1004.40 hPa90.00 %-0.30 °C 
20:15:001.20 °C1004.70 hPa90.00 %-0.30 °C 
20:00:001.30 °C1004.80 hPa90.00 %8.28 km/hONO-1.30 °C-0.20 °C 
19:45:001.40 °C1004.90 hPa90.00 %-0.10 °C 
19:30:001.30 °C1005.00 hPa90.00 %-0.20 °C 
19:15:001.40 °C1005.20 hPa90.00 %-0.10 °C 
19:00:001.50 °C1005.10 hPa90.00 %0.00 °C 
18:45:001.50 °C1005.30 hPa89.00 %-0.10 °C 
18:30:001.60 °C1005.70 hPa89.00 %0.00 °C 
18:15:001.60 °C1005.80 hPa89.00 %0.00 °C 
18:00:001.60 °C1005.70 hPa89.00 %0.00 °C 
17:45:001.60 °C1005.60 hPa88.00 %4.68 km/hNNW1.60 °C-0.20 °C 
17:30:001.50 °C1005.70 hPa88.00 %-0.30 °C 
17:15:001.40 °C1005.50 hPa87.00 %-0.50 °C 
17:00:001.40 °C1005.60 hPa86.00 %-0.70 °C 
16:45:001.60 °C1005.90 hPa85.00 %-0.60 °C 
16:30:001.90 °C1005.90 hPa83.00 %-0.70 °C 
16:15:002.20 °C1006.00 hPa81.00 %-0.70 °C 
16:00:002.40 °C1006.10 hPa81.00 %6.12 km/hSO0.70 °C-0.50 °C 
15:45:002.40 °C1006.30 hPa81.00 %-0.50 °C 
15:30:002.30 °C1006.10 hPa81.00 %-0.60 °C 
15:15:002.40 °C1006.00 hPa79.00 %-0.90 °C 
15:00:002.90 °C1006.20 hPa79.00 %3.24 km/hSW2.90 °C-0.40 °C 
14:45:003.00 °C1006.00 hPa78.00 %13.32 km/hSSW-0.40 °C-0.50 °C 
14:30:003.10 °C1006.10 hPa77.00 %-0.50 °C 
14:15:003.20 °C1006.20 hPa77.00 %-0.40 °C 
14:00:003.60 °C1006.00 hPa75.00 %-0.40 °C 
13:45:003.90 °C1006.10 hPa75.00 %-0.10 °C 
13:30:004.10 °C1006.40 hPa74.00 %-0.10 °C 
13:15:004.40 °C1006.70 hPa73.00 %0.00 °C 
13:00:004.50 °C1006.70 hPa73.00 %0.10 °C 
12:45:004.30 °C1006.70 hPa75.00 %0.30 °C 
12:30:004.10 °C1007.00 hPa77.00 %0.40 °C 
12:15:003.80 °C1007.10 hPa77.00 %0.10 °C 
12:00:003.60 °C1007.10 hPa77.00 %0.00 °C 
11:45:003.60 °C1007.30 hPa77.00 %0.00 °C 
11:30:003.80 °C1007.50 hPa76.00 %0.00 °C 
11:15:003.90 °C1007.50 hPa76.00 %0.10 °C 
11:00:004.10 °C1007.70 hPa76.00 %0.30 °C 
10:45:004.30 °C1007.60 hPa76.00 %0.50 °C 
10:30:004.60 °C1007.50 hPa76.00 %2.88 km/hOSO4.60 °C0.70 °C 
10:15:004.40 °C1007.00 hPa78.00 %0.90 °C 
10:00:004.20 °C1007.10 hPa79.00 %0.90 °C 
09:45:004.30 °C1006.90 hPa79.00 %1.00 °C 
09:30:004.20 °C1006.90 hPa79.00 %0.90 °C 
09:15:004.10 °C1007.00 hPa81.00 %1.10 °C 
09:00:003.50 °C1006.80 hPa83.00 %0.90 °C 
08:45:002.90 °C1006.40 hPa84.00 %0.50 °C 
08:30:002.80 °C1006.20 hPa82.00 %0.00 °C 
08:15:003.10 °C1006.30 hPa81.00 %0.20 °C 
08:00:003.70 °C1006.40 hPa80.00 %0.60 °C 
07:45:003.90 °C1006.20 hPa80.00 %0.80 °C 
07:30:003.60 °C1005.90 hPa81.00 %0.70 °C 
07:15:002.80 °C1006.00 hPa79.00 %-0.50 °C 
07:00:003.30 °C1006.00 hPa78.00 %-0.20 °C 
06:45:003.80 °C1005.60 hPa76.00 %0.00 °C 
06:30:003.90 °C1005.70 hPa76.00 %0.10 °C 
06:15:003.90 °C1005.70 hPa76.00 %0.10 °C 
06:00:003.80 °C1005.60 hPa76.00 %0.00 °C 
05:45:003.60 °C1005.70 hPa75.00 %-0.40 °C 
05:30:003.50 °C1005.70 hPa75.00 %-0.50 °C 
05:15:003.80 °C1005.60 hPa74.00 %3.24 km/hS3.80 °C-0.40 °C 
05:00:004.10 °C1005.40 hPa74.00 %-0.10 °C 
04:45:004.20 °C1005.50 hPa74.00 %0.00 °C 
04:30:004.30 °C1005.40 hPa73.00 %-0.10 °C 
04:15:004.60 °C1005.30 hPa72.00 %0.00 °C 
04:00:004.90 °C1005.40 hPa70.00 %4.32 km/hSSW4.90 °C-0.10 °C 
03:45:004.90 °C1005.40 hPa70.00 %-0.10 °C 
03:30:004.80 °C1005.30 hPa70.00 %-0.20 °C 
03:15:004.90 °C1005.40 hPa70.00 %-0.10 °C 
03:00:004.90 °C1005.50 hPa70.00 %3.96 km/hSSW4.90 °C-0.10 °C 
02:45:004.80 °C1005.40 hPa71.00 %4.68 km/hSW4.80 °C0.00 °C 
02:30:004.40 °C1005.50 hPa72.00 %4.32 km/hWNW4.40 °C-0.20 °C 
02:15:004.00 °C1005.60 hPa73.00 %-0.40 °C 
02:00:003.50 °C1005.20 hPa74.00 %-0.70 °C 
01:45:003.00 °C1005.20 hPa74.00 %-1.20 °C 
01:30:003.50 °C1005.10 hPa73.00 %-0.90 °C 
01:15:003.30 °C1005.00 hPa74.00 %-0.90 °C 
01:00:002.80 °C1005.00 hPa76.00 %-1.00 °C 
00:45:002.80 °C1005.20 hPa76.00 %-1.00 °C 
00:30:002.90 °C1005.00 hPa75.00 %-1.10 °C 
00:15:003.80 °C1005.40 hPa73.00 %-0.60 °C 
00:00:004.10 °C1005.30 hPa72.00 %-0.50 °C 

Permanenter Link zu dieser Seite: Wetter im Erzgebirge am 16.01.2015
Performance-Info: Die Erstellung der Seite / Statistik(en) / Tabelle(n) erforderte 5 Datenbankserver-Abfrage(n) und dauerte 97 Millisekunden. (Dieser Messwert ist von der Gesamt-Auslastung des Servers abhängig.)
Erzgebirge - Wetter | Erzgebirge - Wetter (Mobilgeräte) | Komplette Klimadatenbank